• Join FlightAware (Why Join?)
  • Login
  • US Flag 
Gobble Gobble! 
04:06PM EST


 

Airport Tracker/Info


-or-


 

Live Flight TrackerFlight Track Log ✈ ORK45 ✈ 01-May-2013 ✈ CYXS - CYVR

Flight Track Log - Related Links

Times and Time Zones

All times are in EDT time to prevent confusion due to time zone crossing. See the ORK45 flight status page for this flight to view local times or setup timezone preferences in your user account.

Time Position Orientation Groundspeed Altitude Reporting Facility
EDT Latitude Longitude Course Direction KTS MPH feet Rate Location/Type
09:25PM 53.8667 -122.6667 184° South 50 58 2,300  Level Vancouver Center
09:26PM 53.8167 -122.6333 159° South 160 184 4,300 2,100 Climbing Vancouver Center
09:27PM 53.7667 -122.6667 202° Southwest 160 184 6,500 2,220 Climbing Vancouver Center
09:28PM 53.7333 -122.6667 180° South 170 196 8,800 1,920 Climbing Vancouver Center
09:29PM 53.6833 -122.7000 202° Southwest 170 196 10,400 1,500 Climbing Vancouver Center
09:30PM 53.6333 -122.7000 180° South 170 196 11,900 1,500 Climbing Vancouver Center
09:31PM 53.4753 -122.7279 184° South  Level Estimated
09:31PM 53.5833 -122.7000 180° South 180 207 13,400  Level Vancouver Center
09:32PM 53.5333 -122.7333 202° Southwest 180 207 15,000 1,500 Climbing Vancouver Center
09:33PM 53.4833 -122.7333 180° South 190 219 16,500 1,380 Climbing Vancouver Center
09:34PM 53.4333 -122.7667 202° Southwest 200 230 17,800 900 Climbing Vancouver Center
09:35PM 53.3667 -122.7833 188° South 210 242 18,300 720 Climbing Vancouver Center
09:36PM 53.3167 -122.7833 180° South 210 242 19,300 900 Climbing Vancouver Center
09:37PM 53.2500 -122.8000 189° South 220 253 20,200 900 Climbing Vancouver Center
09:38PM 53.1833 -122.8167 189° South 220 253 21,100 360 Climbing Vancouver Center
09:39PM 53.1167 -122.8500 197° South 240 276 21,000  Descending Vancouver Center
09:40PM 53.0500 -122.8500 180° South 260 299 21,100 -60 Climbing Vancouver Center
09:41PM 52.9833 -122.8833 197° South 270 311 20,900 -60 Descending Vancouver Center
09:42PM 52.9000 -122.9167 194° South 270 311 21,000  Climbing Vancouver Center
09:43PM 52.8333 -122.9333 189° South 280 322 21,000 -60 Level Vancouver Center
09:44PM 52.7500 -122.9500 187° South 280 322 20,900  Descending Vancouver Center
09:45PM 52.6667 -122.9667 187° South 280 322 21,000  Climbing Vancouver Center
09:46PM 52.6000 -123.0000 197° South 280 322 21,000  Level Vancouver Center
09:47PM 52.5167 -123.0000 180° South 280 322 21,100  Climbing Vancouver Center
09:48PM 52.4500 -123.0333 197° South 280 322 21,100 -60 Level Vancouver Center
09:49PM 52.3667 -123.0667 194° South 280 322 21,000 -120 Descending Vancouver Center
09:50PM 52.2833 -123.0833 187° South 290 334 20,900  Descending Vancouver Center
09:51PM 52.2167 -123.1167 197° South 280 322 21,100  Climbing Vancouver Center
09:52PM 52.1333 -123.1167 180° South 280 322 21,000 -60 Descending Vancouver Center
09:53PM 52.0500 -123.1500 194° South 280 322 21,000  Level Vancouver Center
09:54PM 51.9833 -123.1667 189° South 280 322 21,000  Level Vancouver Center
09:55PM 51.9000 -123.2000 194° South 280 322 21,000  Level Vancouver Center
09:56PM 51.8333 -123.2333 197° South 280 322 21,000  Level Vancouver Center
09:57PM 51.7500 -123.2667 194° South 280 322 21,100  Climbing Vancouver Center
09:58PM 51.6667 -123.2667 180° South 280 322 21,000 -60 Descending Vancouver Center
09:59PM 51.6000 -123.2833 189° South 290 334 21,000  Level Vancouver Center
10:00PM 51.5167 -123.2833 180° South 280 322 21,000  Level Vancouver Center
10:01PM 51.4333 -123.3167 194° South 280 322 21,000  Level Vancouver Center
10:02PM 51.3667 -123.3167 180° South 280 322 21,000 -60 Level Vancouver Center
10:03PM 51.2833 -123.3500 194° South 280 322 20,900  Descending Vancouver Center
10:04PM 51.2000 -123.3667 187° South 280 322 21,000 60 Climbing Vancouver Center
10:05PM 51.1167 -123.4000 194° South 280 322 21,100  Climbing Vancouver Center
10:06PM 51.0500 -123.4333 197° South 280 322 21,000  Descending Vancouver Center
10:07PM 50.9667 -123.4333 180° South 290 334 21,100 -60 Climbing Vancouver Center
10:08PM 50.8833 -123.4500 187° South 290 334 20,900 -60 Descending Vancouver Center
10:09PM 50.8167 -123.4833 198° South 290 334 21,000 60 Climbing Vancouver Center
10:10PM 50.7333 -123.5000 187° South 280 322 21,100 -180 Climbing Vancouver Center
10:11PM 50.6500 -123.5167 187° South 280 322 20,700 -600 Descending Vancouver Center
10:12PM 50.5667 -123.5333 187° South 300 345 19,900 -960 Descending Vancouver Center
10:13PM 50.4833 -123.5667 194° South 310 357 18,800 -900 Descending Vancouver Center
10:14PM 50.4000 -123.5833 187° South 310 357 18,100 -900 Descending Vancouver Center
10:15PM 50.3167 -123.6167 194° South 320 368 17,000 -1,200 Descending Vancouver Center
10:16PM 50.2167 -123.6167 180° South 320 368 15,700 -1,260 Descending Vancouver Center
10:17PM 50.1333 -123.6500 194° South 320 368 14,500 -1,080 Descending Vancouver Center
10:18PM 50.0500 -123.6667 187° South 310 357 13,600 -900 Descending Vancouver Center
10:19PM 49.9667 -123.7000 194° South 300 345 12,700 -840 Descending Vancouver Center
10:20PM 49.9000 -123.7167 189° South 290 334 12,000 -840 Descending Vancouver Center
10:21PM 49.8167 -123.7167 180° South 280 322 11,100 -900 Descending Vancouver Center
10:22PM 49.7333 -123.7000 173° South 280 322 10,200 -540 Descending Vancouver Center
10:23PM 49.6667 -123.6167 141° Southeast 280 322 10,100 -60 Descending Vancouver Center
10:24PM 49.6000 -123.6000 171° South 280 322 10,100 -60 Level Vancouver Center
10:25PM 49.5333 -123.5500 154° Southeast 280 322 10,000 -60 Descending Vancouver Center
10:26PM 49.4667 -123.4667 141° Southeast 290 334 10,000  Level Vancouver Center
10:27PM 49.4000 -123.4167 154° Southeast 290 334 10,000  Level Vancouver Center
10:28PM 49.3167 -123.3667 159° South 290 334 10,100  Climbing Vancouver Center
10:29PM 49.2833 -123.2667 117° Southeast 300 345 10,000 -1,200 Descending Vancouver Center
10:30PM 49.2667 -123.1333 101° East 300 345 7,700 -2,400 Descending Vancouver Center
10:31PM 49.2500 -123.0000 101° East 280 322 5,300 -1,680 Descending Vancouver Center
10:32PM 49.2000 -123.0667 221° Southwest 210 242 4,400 -1,800 Descending Vancouver Center
10:33PM 49.1833 -123.1167 243° Southwest 160 184 1,800 -2,640 Descending Vancouver Center